sensor_id;sensor_type;location;lat;lon;timestamp;P1;durP1;ratioP1;P2;durP2;ratioP2
21018;SDS011;10667;51.056;3.732;2023-03-25T00:02:19;10.00;;;2.63;;
21018;SDS011;10667;51.056;3.732;2023-03-25T00:04:52;13.15;;;3.13;;
21018;SDS011;10667;51.056;3.732;2023-03-25T00:07:19;8.60;;;2.72;;
21018;SDS011;10667;51.056;3.732;2023-03-25T00:09:45;9.65;;;2.40;;
21018;SDS011;10667;51.056;3.732;2023-03-25T00:12:12;7.03;;;2.45;;
21018;SDS011;10667;51.056;3.732;2023-03-25T00:14:38;12.20;;;2.47;;
21018;SDS011;10667;51.056;3.732;2023-03-25T00:17:04;11.25;;;2.95;;
21018;SDS011;10667;51.056;3.732;2023-03-25T00:19:31;10.82;;;2.97;;
21018;SDS011;10667;51.056;3.732;2023-03-25T00:21:59;8.70;;;2.20;;
21018;SDS011;10667;51.056;3.732;2023-03-25T00:24:25;7.40;;;2.55;;
21018;SDS011;10667;51.056;3.732;2023-03-25T00:26:51;8.75;;;2.67;;
21018;SDS011;10667;51.056;3.732;2023-03-25T00:29:18;8.20;;;2.92;;
21018;SDS011;10667;51.056;3.732;2023-03-25T00:31:45;6.18;;;2.28;;
21018;SDS011;10667;51.056;3.732;2023-03-25T00:34:10;10.02;;;3.53;;
21018;SDS011;10667;51.056;3.732;2023-03-25T00:36:39;10.75;;;2.55;;
21018;SDS011;10667;51.056;3.732;2023-03-25T00:39:05;7.55;;;2.60;;
21018;SDS011;10667;51.056;3.732;2023-03-25T00:41:32;10.02;;;3.00;;
21018;SDS011;10667;51.056;3.732;2023-03-25T00:44:00;10.05;;;2.63;;
21018;SDS011;10667;51.056;3.732;2023-03-25T00:46:26;11.35;;;2.25;;
21018;SDS011;10667;51.056;3.732;2023-03-25T00:48:54;8.95;;;3.13;;
21018;SDS011;10667;51.056;3.732;2023-03-25T00:51:21;8.23;;;2.50;;
21018;SDS011;10667;51.056;3.732;2023-03-25T00:53:51;7.53;;;2.50;;
21018;SDS011;10667;51.056;3.732;2023-03-25T00:56:18;7.63;;;2.78;;
21018;SDS011;10667;51.056;3.732;2023-03-25T00:58:45;10.82;;;2.75;;
21018;SDS011;10667;51.056;3.732;2023-03-25T01:01:15;7.85;;;2.65;;
21018;SDS011;10667;51.056;3.732;2023-03-25T01:03:47;9.95;;;2.88;;
21018;SDS011;10667;51.056;3.732;2023-03-25T01:06:21;10.88;;;2.80;;
21018;SDS011;10667;51.056;3.732;2023-03-25T01:08:50;15.43;;;2.97;;
21018;SDS011;10667;51.056;3.732;2023-03-25T01:11:20;12.32;;;3.30;;
21018;SDS011;10667;51.056;3.732;2023-03-25T01:13:49;5.65;;;2.80;;
21018;SDS011;10667;51.056;3.732;2023-03-25T01:16:15;16.10;;;3.60;;
21018;SDS011;10667;51.056;3.732;2023-03-25T01:18:41;13.43;;;3.28;;
21018;SDS011;10667;51.056;3.732;2023-03-25T01:21:07;16.15;;;2.90;;
21018;SDS011;10667;51.056;3.732;2023-03-25T01:23:33;12.38;;;3.00;;
21018;SDS011;10667;51.056;3.732;2023-03-25T01:25:59;12.73;;;4.00;;
21018;SDS011;10667;51.056;3.732;2023-03-25T01:28:25;11.07;;;3.03;;
21018;SDS011;10667;51.056;3.732;2023-03-25T01:31:01;9.07;;;3.33;;
21018;SDS011;10667;51.056;3.732;2023-03-25T01:33:30;10.40;;;3.22;;
21018;SDS011;10667;51.056;3.732;2023-03-25T01:35:57;15.23;;;3.28;;
21018;SDS011;10667;51.056;3.732;2023-03-25T01:38:23;13.20;;;2.78;;
21018;SDS011;10667;51.056;3.732;2023-03-25T01:40:50;8.77;;;2.97;;
21018;SDS011;10667;51.056;3.732;2023-03-25T01:43:17;16.17;;;3.75;;
21018;SDS011;10667;51.056;3.732;2023-03-25T01:45:42;18.60;;;3.42;;
21018;SDS011;10667;51.056;3.732;2023-03-25T01:50:44;11.57;;;3.65;;
21018;SDS011;10667;51.056;3.732;2023-03-25T01:53:13;18.50;;;3.90;;
21018;SDS011;10667;51.056;3.732;2023-03-25T01:55:40;14.65;;;3.70;;
21018;SDS011;10667;51.056;3.732;2023-03-25T01:58:09;16.77;;;3.60;;
21018;SDS011;10667;51.056;3.732;2023-03-25T02:00:39;19.27;;;3.95;;
21018;SDS011;10667;51.056;3.732;2023-03-25T02:03:08;15.60;;;4.05;;
21018;SDS011;10667;51.056;3.732;2023-03-25T02:05:43;19.15;;;3.60;;
21018;SDS011;10667;51.056;3.732;2023-03-25T02:08:22;18.25;;;3.53;;
21018;SDS011;10667;51.056;3.732;2023-03-25T02:10:50;13.57;;;3.60;;
21018;SDS011;10667;51.056;3.732;2023-03-25T02:13:17;15.38;;;3.50;;
21018;SDS011;10667;51.056;3.732;2023-03-25T02:16:01;23.38;;;4.78;;
21018;SDS011;10667;51.056;3.732;2023-03-25T02:18:42;23.27;;;3.90;;
21018;SDS011;10667;51.056;3.732;2023-03-25T02:27:11;21.63;;;4.22;;
21018;SDS011;10667;51.056;3.732;2023-03-25T02:41:05;15.65;;;3.58;;
21018;SDS011;10667;51.056;3.732;2023-03-25T02:43:48;18.83;;;3.65;;
21018;SDS011;10667;51.056;3.732;2023-03-25T02:46:21;20.25;;;4.00;;
21018;SDS011;10667;51.056;3.732;2023-03-25T02:49:24;17.13;;;3.95;;
21018;SDS011;10667;51.056;3.732;2023-03-25T02:52:15;19.90;;;4.32;;
21018;SDS011;10667;51.056;3.732;2023-03-25T02:54:45;15.02;;;3.20;;
21018;SDS011;10667;51.056;3.732;2023-03-25T02:57:16;17.10;;;3.92;;
21018;SDS011;10667;51.056;3.732;2023-03-25T02:59:44;19.85;;;4.38;;
21018;SDS011;10667;51.056;3.732;2023-03-25T03:02:11;20.90;;;3.75;;
21018;SDS011;10667;51.056;3.732;2023-03-25T03:04:57;19.55;;;3.65;;
21018;SDS011;10667;51.056;3.732;2023-03-25T03:07:27;18.27;;;3.60;;
21018;SDS011;10667;51.056;3.732;2023-03-25T03:10:17;19.33;;;4.43;;
21018;SDS011;10667;51.056;3.732;2023-03-25T03:16:01;21.30;;;4.35;;
21018;SDS011;10667;51.056;3.732;2023-03-25T03:24:39;17.98;;;3.72;;
21018;SDS011;10667;51.056;3.732;2023-03-25T03:29:51;17.65;;;3.72;;
21018;SDS011;10667;51.056;3.732;2023-03-25T03:32:31;19.75;;;4.28;;
21018;SDS011;10667;51.056;3.732;2023-03-25T03:37:43;18.27;;;3.15;;
21018;SDS011;10667;51.056;3.732;2023-03-25T03:40:15;17.52;;;3.75;;
21018;SDS011;10667;51.056;3.732;2023-03-25T03:42:44;10.40;;;3.33;;
21018;SDS011;10667;51.056;3.732;2023-03-25T03:45:18;13.07;;;2.83;;
21018;SDS011;10667;51.056;3.732;2023-03-25T03:47:58;12.10;;;2.95;;
21018;SDS011;10667;51.056;3.732;2023-03-25T03:50:32;11.20;;;2.78;;
21018;SDS011;10667;51.056;3.732;2023-03-25T03:55:52;9.35;;;2.58;;
21018;SDS011;10667;51.056;3.732;2023-03-25T03:58:21;12.73;;;2.72;;
21018;SDS011;10667;51.056;3.732;2023-03-25T04:01:03;7.93;;;2.70;;
21018;SDS011;10667;51.056;3.732;2023-03-25T04:03:36;9.38;;;2.45;;
21018;SDS011;10667;51.056;3.732;2023-03-25T04:06:08;11.57;;;2.55;;
21018;SDS011;10667;51.056;3.732;2023-03-25T04:08:48;10.57;;;2.67;;
21018;SDS011;10667;51.056;3.732;2023-03-25T04:11:20;15.75;;;2.58;;
21018;SDS011;10667;51.056;3.732;2023-03-25T04:13:49;15.65;;;2.63;;
21018;SDS011;10667;51.056;3.732;2023-03-25T04:16:17;11.48;;;2.58;;
21018;SDS011;10667;51.056;3.732;2023-03-25T04:18:43;12.80;;;2.85;;
21018;SDS011;10667;51.056;3.732;2023-03-25T04:21:11;11.13;;;3.47;;
21018;SDS011;10667;51.056;3.732;2023-03-25T04:23:39;9.18;;;2.55;;
21018;SDS011;10667;51.056;3.732;2023-03-25T04:26:05;11.65;;;3.13;;
21018;SDS011;10667;51.056;3.732;2023-03-25T04:28:31;13.85;;;3.20;;
21018;SDS011;10667;51.056;3.732;2023-03-25T04:30:57;7.32;;;2.70;;
21018;SDS011;10667;51.056;3.732;2023-03-25T04:33:24;13.38;;;2.65;;
21018;SDS011;10667;51.056;3.732;2023-03-25T04:35:54;9.50;;;2.78;;
21018;SDS011;10667;51.056;3.732;2023-03-25T04:38:19;7.60;;;2.25;;
21018;SDS011;10667;51.056;3.732;2023-03-25T04:40:45;9.00;;;2.33;;
21018;SDS011;10667;51.056;3.732;2023-03-25T04:43:12;7.90;;;2.55;;
21018;SDS011;10667;51.056;3.732;2023-03-25T04:45:38;11.60;;;2.60;;
21018;SDS011;10667;51.056;3.732;2023-03-25T04:48:07;12.88;;;2.70;;
21018;SDS011;10667;51.056;3.732;2023-03-25T04:50:40;11.75;;;2.25;;
21018;SDS011;10667;51.056;3.732;2023-03-25T04:53:07;10.15;;;2.35;;
21018;SDS011;10667;51.056;3.732;2023-03-25T04:55:33;8.85;;;2.75;;
21018;SDS011;10667;51.056;3.732;2023-03-25T04:58:00;13.48;;;2.40;;
21018;SDS011;10667;51.056;3.732;2023-03-25T05:00:26;16.73;;;2.92;;
21018;SDS011;10667;51.056;3.732;2023-03-25T05:02:53;16.63;;;2.60;;
21018;SDS011;10667;51.056;3.732;2023-03-25T05:05:21;11.43;;;2.65;;
21018;SDS011;10667;51.056;3.732;2023-03-25T05:07:49;13.23;;;2.65;;
21018;SDS011;10667;51.056;3.732;2023-03-25T05:10:16;10.90;;;2.80;;
21018;SDS011;10667;51.056;3.732;2023-03-25T05:12:44;16.10;;;3.50;;
21018;SDS011;10667;51.056;3.732;2023-03-25T05:15:10;14.55;;;3.40;;
21018;SDS011;10667;51.056;3.732;2023-03-25T05:17:37;13.90;;;3.10;;
21018;SDS011;10667;51.056;3.732;2023-03-25T05:20:03;14.80;;;3.28;;
21018;SDS011;10667;51.056;3.732;2023-03-25T05:22:33;20.95;;;3.42;;
21018;SDS011;10667;51.056;3.732;2023-03-25T05:24:59;18.90;;;4.30;;
21018;SDS011;10667;51.056;3.732;2023-03-25T05:27:26;26.25;;;3.70;;
21018;SDS011;10667;51.056;3.732;2023-03-25T05:29:54;13.50;;;3.15;;
21018;SDS011;10667;51.056;3.732;2023-03-25T05:32:22;15.63;;;3.40;;
21018;SDS011;10667;51.056;3.732;2023-03-25T05:34:57;11.10;;;2.92;;
21018;SDS011;10667;51.056;3.732;2023-03-25T05:37:26;14.50;;;4.07;;
21018;SDS011;10667;51.056;3.732;2023-03-25T05:39:53;19.70;;;4.32;;
21018;SDS011;10667;51.056;3.732;2023-03-25T05:42:18;17.70;;;3.80;;
21018;SDS011;10667;51.056;3.732;2023-03-25T05:44:47;13.82;;;2.95;;
21018;SDS011;10667;51.056;3.732;2023-03-25T05:47:17;16.35;;;4.07;;
21018;SDS011;10667;51.056;3.732;2023-03-25T05:49:45;21.80;;;4.10;;
21018;SDS011;10667;51.056;3.732;2023-03-25T05:52:12;18.75;;;3.85;;
21018;SDS011;10667;51.056;3.732;2023-03-25T05:54:38;17.77;;;3.55;;
21018;SDS011;10667;51.056;3.732;2023-03-25T05:57:06;19.10;;;5.00;;
21018;SDS011;10667;51.056;3.732;2023-03-25T05:59:32;21.60;;;4.15;;
21018;SDS011;10667;51.056;3.732;2023-03-25T06:01:58;20.45;;;4.15;;
21018;SDS011;10667;51.056;3.732;2023-03-25T06:04:24;21.58;;;3.95;;
21018;SDS011;10667;51.056;3.732;2023-03-25T06:06:50;20.27;;;4.32;;
21018;SDS011;10667;51.056;3.732;2023-03-25T06:09:15;24.13;;;4.20;;
21018;SDS011;10667;51.056;3.732;2023-03-25T06:11:42;30.90;;;4.97;;
21018;SDS011;10667;51.056;3.732;2023-03-25T06:14:08;20.58;;;4.07;;
21018;SDS011;10667;51.056;3.732;2023-03-25T06:16:34;20.52;;;3.92;;
21018;SDS011;10667;51.056;3.732;2023-03-25T06:19:00;22.95;;;4.40;;
21018;SDS011;10667;51.056;3.732;2023-03-25T06:21:27;23.45;;;4.00;;
21018;SDS011;10667;51.056;3.732;2023-03-25T06:23:54;21.80;;;4.20;;
21018;SDS011;10667;51.056;3.732;2023-03-25T06:26:22;23.00;;;4.22;;
21018;SDS011;10667;51.056;3.732;2023-03-25T06:28:48;22.42;;;4.40;;
21018;SDS011;10667;51.056;3.732;2023-03-25T06:31:24;20.83;;;4.88;;
21018;SDS011;10667;51.056;3.732;2023-03-25T06:33:50;20.85;;;4.70;;
21018;SDS011;10667;51.056;3.732;2023-03-25T06:36:16;28.02;;;4.18;;
21018;SDS011;10667;51.056;3.732;2023-03-25T06:38:47;26.27;;;4.22;;
21018;SDS011;10667;51.056;3.732;2023-03-25T06:41:14;30.77;;;5.28;;
21018;SDS011;10667;51.056;3.732;2023-03-25T06:43:44;25.80;;;4.95;;
21018;SDS011;10667;51.056;3.732;2023-03-25T06:46:10;31.95;;;5.18;;
21018;SDS011;10667;51.056;3.732;2023-03-25T06:48:36;25.85;;;4.38;;
21018;SDS011;10667;51.056;3.732;2023-03-25T06:51:02;24.73;;;4.65;;
21018;SDS011;10667;51.056;3.732;2023-03-25T06:53:28;29.77;;;5.57;;
21018;SDS011;10667;51.056;3.732;2023-03-25T06:55:57;26.15;;;5.68;;
21018;SDS011;10667;51.056;3.732;2023-03-25T06:58:23;23.65;;;4.95;;
21018;SDS011;10667;51.056;3.732;2023-03-25T07:00:52;29.80;;;5.38;;
21018;SDS011;10667;51.056;3.732;2023-03-25T07:03:19;28.92;;;6.07;;
21018;SDS011;10667;51.056;3.732;2023-03-25T07:05:46;33.95;;;5.80;;
21018;SDS011;10667;51.056;3.732;2023-03-25T07:08:14;22.92;;;4.65;;
21018;SDS011;10667;51.056;3.732;2023-03-25T07:10:40;27.67;;;6.10;;
21018;SDS011;10667;51.056;3.732;2023-03-25T07:13:07;35.50;;;5.57;;
21018;SDS011;10667;51.056;3.732;2023-03-25T07:15:34;27.13;;;5.55;;
21018;SDS011;10667;51.056;3.732;2023-03-25T07:17:59;30.27;;;6.68;;
21018;SDS011;10667;51.056;3.732;2023-03-25T07:20:25;25.58;;;5.55;;
21018;SDS011;10667;51.056;3.732;2023-03-25T07:22:52;27.92;;;4.85;;
21018;SDS011;10667;51.056;3.732;2023-03-25T07:25:19;29.25;;;4.75;;
21018;SDS011;10667;51.056;3.732;2023-03-25T07:27:45;22.27;;;4.95;;
21018;SDS011;10667;51.056;3.732;2023-03-25T07:30:11;32.00;;;5.25;;
21018;SDS011;10667;51.056;3.732;2023-03-25T07:32:37;25.63;;;4.95;;
21018;SDS011;10667;51.056;3.732;2023-03-25T07:35:03;28.13;;;4.80;;
21018;SDS011;10667;51.056;3.732;2023-03-25T07:37:30;25.25;;;4.82;;
21018;SDS011;10667;51.056;3.732;2023-03-25T07:39:56;27.25;;;5.57;;
21018;SDS011;10667;51.056;3.732;2023-03-25T07:42:21;21.15;;;4.88;;
21018;SDS011;10667;51.056;3.732;2023-03-25T07:44:47;30.17;;;5.50;;
21018;SDS011;10667;51.056;3.732;2023-03-25T07:47:13;28.02;;;5.35;;
21018;SDS011;10667;51.056;3.732;2023-03-25T07:49:38;36.58;;;5.88;;
21018;SDS011;10667;51.056;3.732;2023-03-25T07:52:07;29.25;;;4.70;;
21018;SDS011;10667;51.056;3.732;2023-03-25T07:54:33;29.95;;;5.22;;
21018;SDS011;10667;51.056;3.732;2023-03-25T07:57:00;26.05;;;5.15;;
21018;SDS011;10667;51.056;3.732;2023-03-25T07:59:25;23.40;;;6.15;;
21018;SDS011;10667;51.056;3.732;2023-03-25T08:01:51;25.98;;;5.15;;
21018;SDS011;10667;51.056;3.732;2023-03-25T08:04:17;34.95;;;5.60;;
21018;SDS011;10667;51.056;3.732;2023-03-25T08:06:43;27.02;;;5.63;;
21018;SDS011;10667;51.056;3.732;2023-03-25T08:09:08;29.10;;;5.15;;
21018;SDS011;10667;51.056;3.732;2023-03-25T08:11:34;25.75;;;4.78;;
21018;SDS011;10667;51.056;3.732;2023-03-25T08:13:59;28.92;;;4.85;;
21018;SDS011;10667;51.056;3.732;2023-03-25T08:16:25;19.90;;;5.57;;
21018;SDS011;10667;51.056;3.732;2023-03-25T08:18:51;25.55;;;5.25;;
21018;SDS011;10667;51.056;3.732;2023-03-25T08:21:17;30.70;;;5.00;;
21018;SDS011;10667;51.056;3.732;2023-03-25T08:23:52;27.40;;;5.95;;
21018;SDS011;10667;51.056;3.732;2023-03-25T08:26:25;26.90;;;4.85;;
21018;SDS011;10667;51.056;3.732;2023-03-25T08:28:51;29.88;;;5.70;;
21018;SDS011;10667;51.056;3.732;2023-03-25T08:31:19;34.78;;;5.40;;
21018;SDS011;10667;51.056;3.732;2023-03-25T08:33:46;28.63;;;5.45;;
21018;SDS011;10667;51.056;3.732;2023-03-25T08:36:11;25.75;;;5.05;;
21018;SDS011;10667;51.056;3.732;2023-03-25T08:38:43;30.15;;;4.90;;
21018;SDS011;10667;51.056;3.732;2023-03-25T08:41:10;27.27;;;6.00;;
21018;SDS011;10667;51.056;3.732;2023-03-25T08:43:35;32.30;;;4.57;;
21018;SDS011;10667;51.056;3.732;2023-03-25T08:46:01;25.35;;;5.75;;
21018;SDS011;10667;51.056;3.732;2023-03-25T08:48:27;27.77;;;4.63;;
21018;SDS011;10667;51.056;3.732;2023-03-25T08:50:53;23.02;;;5.75;;
21018;SDS011;10667;51.056;3.732;2023-03-25T08:53:18;34.38;;;6.13;;
21018;SDS011;10667;51.056;3.732;2023-03-25T08:55:44;20.02;;;4.28;;
21018;SDS011;10667;51.056;3.732;2023-03-25T08:58:10;28.02;;;6.57;;
21018;SDS011;10667;51.056;3.732;2023-03-25T09:00:36;29.95;;;5.70;;
21018;SDS011;10667;51.056;3.732;2023-03-25T09:03:02;29.92;;;5.40;;
21018;SDS011;10667;51.056;3.732;2023-03-25T09:05:29;38.30;;;5.57;;
21018;SDS011;10667;51.056;3.732;2023-03-25T09:07:54;25.60;;;5.57;;
21018;SDS011;10667;51.056;3.732;2023-03-25T09:10:20;28.38;;;5.78;;
21018;SDS011;10667;51.056;3.732;2023-03-25T09:12:46;30.63;;;5.40;;
21018;SDS011;10667;51.056;3.732;2023-03-25T09:15:12;26.00;;;5.00;;
21018;SDS011;10667;51.056;3.732;2023-03-25T09:17:38;30.85;;;6.13;;
21018;SDS011;10667;51.056;3.732;2023-03-25T09:20:04;28.88;;;5.88;;
21018;SDS011;10667;51.056;3.732;2023-03-25T09:22:36;23.52;;;5.38;;
21018;SDS011;10667;51.056;3.732;2023-03-25T09:25:02;25.67;;;5.22;;
21018;SDS011;10667;51.056;3.732;2023-03-25T09:27:28;28.00;;;4.75;;
21018;SDS011;10667;51.056;3.732;2023-03-25T09:29:54;23.63;;;4.80;;
21018;SDS011;10667;51.056;3.732;2023-03-25T09:32:20;23.20;;;4.80;;
21018;SDS011;10667;51.056;3.732;2023-03-25T09:34:45;26.27;;;5.07;;
21018;SDS011;10667;51.056;3.732;2023-03-25T09:37:12;22.45;;;5.00;;
21018;SDS011;10667;51.056;3.732;2023-03-25T09:39:37;26.75;;;5.88;;
21018;SDS011;10667;51.056;3.732;2023-03-25T09:47:25;31.60;;;5.75;;
21018;SDS011;10667;51.056;3.732;2023-03-25T09:49:55;32.72;;;6.03;;
21018;SDS011;10667;51.056;3.732;2023-03-25T09:52:25;34.85;;;6.03;;
21018;SDS011;10667;51.056;3.732;2023-03-25T09:54:57;31.65;;;6.50;;
21018;SDS011;10667;51.056;3.732;2023-03-25T09:57:29;33.70;;;5.60;;
21018;SDS011;10667;51.056;3.732;2023-03-25T09:59:58;29.27;;;5.20;;
21018;SDS011;10667;51.056;3.732;2023-03-25T10:02:34;31.17;;;5.68;;
21018;SDS011;10667;51.056;3.732;2023-03-25T10:05:12;27.92;;;5.55;;
21018;SDS011;10667;51.056;3.732;2023-03-25T10:10:51;28.48;;;5.65;;
21018;SDS011;10667;51.056;3.732;2023-03-25T10:16:23;21.75;;;5.05;;
21018;SDS011;10667;51.056;3.732;2023-03-25T10:24:25;30.98;;;5.75;;
21018;SDS011;10667;51.056;3.732;2023-03-25T10:26:56;23.23;;;4.53;;
21018;SDS011;10667;51.056;3.732;2023-03-25T10:29:38;25.77;;;4.80;;
21018;SDS011;10667;51.056;3.732;2023-03-25T10:32:27;26.27;;;4.97;;
21018;SDS011;10667;51.056;3.732;2023-03-25T10:35:20;25.13;;;5.40;;
21018;SDS011;10667;51.056;3.732;2023-03-25T10:38:05;23.38;;;5.47;;
21018;SDS011;10667;51.056;3.732;2023-03-25T10:40:40;18.33;;;4.47;;
21018;SDS011;10667;51.056;3.732;2023-03-25T10:45:53;29.73;;;4.85;;
21018;SDS011;10667;51.056;3.732;2023-03-25T10:48:25;24.40;;;4.45;;
21018;SDS011;10667;51.056;3.732;2023-03-25T10:51:00;19.88;;;4.10;;
21018;SDS011;10667;51.056;3.732;2023-03-25T10:53:40;17.70;;;4.75;;
21018;SDS011;10667;51.056;3.732;2023-03-25T10:56:11;21.42;;;4.07;;
21018;SDS011;10667;51.056;3.732;2023-03-25T10:58:40;15.70;;;3.80;;
21018;SDS011;10667;51.056;3.732;2023-03-25T11:01:15;23.75;;;4.25;;
21018;SDS011;10667;51.056;3.732;2023-03-25T11:03:43;20.38;;;3.75;;
21018;SDS011;10667;51.056;3.732;2023-03-25T11:06:21;17.88;;;3.60;;
21018;SDS011;10667;51.056;3.732;2023-03-25T11:11:34;24.27;;;4.15;;
21018;SDS011;10667;51.056;3.732;2023-03-25T11:14:01;19.10;;;4.60;;
21018;SDS011;10667;51.056;3.732;2023-03-25T11:16:34;25.60;;;5.15;;
21018;SDS011;10667;51.056;3.732;2023-03-25T11:19:05;19.00;;;3.67;;
21018;SDS011;10667;51.056;3.732;2023-03-25T11:21:37;20.42;;;3.88;;
21018;SDS011;10667;51.056;3.732;2023-03-25T11:24:04;19.98;;;3.92;;
21018;SDS011;10667;51.056;3.732;2023-03-25T11:26:37;18.50;;;3.70;;
21018;SDS011;10667;51.056;3.732;2023-03-25T11:29:06;16.50;;;3.40;;
21018;SDS011;10667;51.056;3.732;2023-03-25T11:31:35;19.55;;;4.05;;
21018;SDS011;10667;51.056;3.732;2023-03-25T11:34:12;15.18;;;3.78;;
21018;SDS011;10667;51.056;3.732;2023-03-25T11:36:51;19.20;;;3.33;;
21018;SDS011;10667;51.056;3.732;2023-03-25T11:39:26;15.32;;;4.18;;
21018;SDS011;10667;51.056;3.732;2023-03-25T11:41:56;17.35;;;3.90;;
21018;SDS011;10667;51.056;3.732;2023-03-25T11:44:29;13.90;;;3.10;;
21018;SDS011;10667;51.056;3.732;2023-03-25T11:47:00;19.45;;;3.70;;
21018;SDS011;10667;51.056;3.732;2023-03-25T11:49:28;18.38;;;3.75;;
21018;SDS011;10667;51.056;3.732;2023-03-25T11:51:59;23.23;;;4.70;;
21018;SDS011;10667;51.056;3.732;2023-03-25T11:54:36;20.63;;;4.43;;
21018;SDS011;10667;51.056;3.732;2023-03-25T11:57:05;26.70;;;4.90;;
21018;SDS011;10667;51.056;3.732;2023-03-25T11:59:36;28.48;;;4.53;;
21018;SDS011;10667;51.056;3.732;2023-03-25T12:02:21;17.35;;;3.78;;
21018;SDS011;10667;51.056;3.732;2023-03-25T12:05:00;17.48;;;3.67;;
21018;SDS011;10667;51.056;3.732;2023-03-25T12:07:43;22.63;;;4.35;;
21018;SDS011;10667;51.056;3.732;2023-03-25T12:10:47;20.35;;;3.80;;
21018;SDS011;10667;51.056;3.732;2023-03-25T12:15:50;26.55;;;4.88;;
21018;SDS011;10667;51.056;3.732;2023-03-25T12:26:40;18.75;;;4.05;;
21018;SDS011;10667;51.056;3.732;2023-03-25T12:29:35;26.45;;;4.80;;
21018;SDS011;10667;51.056;3.732;2023-03-25T12:32:42;16.58;;;4.05;;
21018;SDS011;10667;51.056;3.732;2023-03-25T12:38:13;27.70;;;4.60;;
21018;SDS011;10667;51.056;3.732;2023-03-25T12:41:27;28.95;;;5.55;;
21018;SDS011;10667;51.056;3.732;2023-03-25T12:44:00;26.15;;;5.00;;
21018;SDS011;10667;51.056;3.732;2023-03-25T12:47:07;21.05;;;4.32;;
21018;SDS011;10667;51.056;3.732;2023-03-25T12:58:15;15.23;;;4.05;;
21018;SDS011;10667;51.056;3.732;2023-03-25T13:06:41;20.45;;;4.38;;
21018;SDS011;10667;51.056;3.732;2023-03-25T13:15:01;20.92;;;3.45;;
21018;SDS011;10667;51.056;3.732;2023-03-25T13:17:37;21.83;;;4.50;;
21018;SDS011;10667;51.056;3.732;2023-03-25T13:20:11;28.98;;;6.20;;
21018;SDS011;10667;51.056;3.732;2023-03-25T13:22:42;15.30;;;3.53;;
21018;SDS011;10667;51.056;3.732;2023-03-25T13:25:19;18.27;;;4.03;;
21018;SDS011;10667;51.056;3.732;2023-03-25T13:27:50;19.88;;;4.50;;
21018;SDS011;10667;51.056;3.732;2023-03-25T13:30:25;14.43;;;3.60;;
21018;SDS011;10667;51.056;3.732;2023-03-25T13:33:12;24.15;;;4.60;;
21018;SDS011;10667;51.056;3.732;2023-03-25T13:38:23;12.05;;;2.88;;
21018;SDS011;10667;51.056;3.732;2023-03-25T13:46:26;18.35;;;4.25;;
21018;SDS011;10667;51.056;3.732;2023-03-25T13:49:20;23.90;;;4.95;;
21018;SDS011;10667;51.056;3.732;2023-03-25T13:52:06;20.20;;;4.45;;
21018;SDS011;10667;51.056;3.732;2023-03-25T13:57:05;23.80;;;4.32;;
21018;SDS011;10667;51.056;3.732;2023-03-25T14:13:10;20.02;;;3.72;;
21018;SDS011;10667;51.056;3.732;2023-03-25T14:15:43;17.92;;;3.65;;
21018;SDS011;10667;51.056;3.732;2023-03-25T14:18:17;13.38;;;3.20;;
21018;SDS011;10667;51.056;3.732;2023-03-25T14:20:44;20.10;;;3.55;;
21018;SDS011;10667;51.056;3.732;2023-03-25T14:23:18;17.13;;;4.15;;
21018;SDS011;10667;51.056;3.732;2023-03-25T14:25:47;13.25;;;3.47;;
21018;SDS011;10667;51.056;3.732;2023-03-25T14:28:19;15.20;;;3.67;;
21018;SDS011;10667;51.056;3.732;2023-03-25T14:44:23;21.30;;;4.20;;
21018;SDS011;10667;51.056;3.732;2023-03-25T14:47:35;19.65;;;4.25;;
21018;SDS011;10667;51.056;3.732;2023-03-25T14:50:03;12.20;;;3.47;;
21018;SDS011;10667;51.056;3.732;2023-03-25T14:52:46;20.30;;;4.03;;
21018;SDS011;10667;51.056;3.732;2023-03-25T14:55:29;15.98;;;3.92;;
21018;SDS011;10667;51.056;3.732;2023-03-25T14:58:26;15.40;;;3.55;;
21018;SDS011;10667;51.056;3.732;2023-03-25T15:00:53;13.88;;;3.38;;
21018;SDS011;10667;51.056;3.732;2023-03-25T15:03:25;19.20;;;4.20;;
21018;SDS011;10667;51.056;3.732;2023-03-25T15:05:58;16.13;;;4.00;;
21018;SDS011;10667;51.056;3.732;2023-03-25T15:08:27;17.50;;;4.05;;
21018;SDS011;10667;51.056;3.732;2023-03-25T15:11:07;21.25;;;3.63;;
21018;SDS011;10667;51.056;3.732;2023-03-25T15:13:39;20.13;;;4.47;;
21018;SDS011;10667;51.056;3.732;2023-03-25T15:18:59;16.00;;;4.25;;
21018;SDS011;10667;51.056;3.732;2023-03-25T15:21:32;24.02;;;3.70;;
21018;SDS011;10667;51.056;3.732;2023-03-25T15:24:20;18.50;;;3.83;;
21018;SDS011;10667;51.056;3.732;2023-03-25T15:27:00;16.00;;;3.63;;
21018;SDS011;10667;51.056;3.732;2023-03-25T15:29:36;17.13;;;3.58;;
21018;SDS011;10667;51.056;3.732;2023-03-25T15:37:57;21.77;;;3.42;;
21018;SDS011;10667;51.056;3.732;2023-03-25T15:46:44;14.20;;;3.83;;
21018;SDS011;10667;51.056;3.732;2023-03-25T15:57:43;19.38;;;4.57;;
21018;SDS011;10667;51.056;3.732;2023-03-25T16:05:30;24.98;;;5.85;;
21018;SDS011;10667;51.056;3.732;2023-03-25T16:08:43;16.35;;;4.15;;
21018;SDS011;10667;51.056;3.732;2023-03-25T16:16:29;23.73;;;4.57;;
21018;SDS011;10667;51.056;3.732;2023-03-25T16:19:00;13.80;;;3.80;;
21018;SDS011;10667;51.056;3.732;2023-03-25T16:21:28;22.88;;;4.45;;
21018;SDS011;10667;51.056;3.732;2023-03-25T16:23:59;21.63;;;5.80;;
21018;SDS011;10667;51.056;3.732;2023-03-25T16:26:32;25.38;;;4.88;;
21018;SDS011;10667;51.056;3.732;2023-03-25T16:29:06;21.80;;;4.43;;
21018;SDS011;10667;51.056;3.732;2023-03-25T16:31:50;27.02;;;5.00;;
21018;SDS011;10667;51.056;3.732;2023-03-25T16:34:18;23.35;;;4.53;;
21018;SDS011;10667;51.056;3.732;2023-03-25T16:36:45;23.65;;;4.78;;
21018;SDS011;10667;51.056;3.732;2023-03-25T16:39:13;32.58;;;5.43;;
21018;SDS011;10667;51.056;3.732;2023-03-25T16:41:43;20.98;;;4.88;;
21018;SDS011;10667;51.056;3.732;2023-03-25T16:44:16;25.48;;;5.43;;
21018;SDS011;10667;51.056;3.732;2023-03-25T16:46:46;24.95;;;5.18;;
21018;SDS011;10667;51.056;3.732;2023-03-25T16:49:31;21.73;;;5.28;;
21018;SDS011;10667;51.056;3.732;2023-03-25T16:52:01;25.08;;;4.78;;
21018;SDS011;10667;51.056;3.732;2023-03-25T16:54:36;26.90;;;4.80;;
21018;SDS011;10667;51.056;3.732;2023-03-25T16:57:10;23.88;;;5.28;;
21018;SDS011;10667;51.056;3.732;2023-03-25T16:59:44;20.90;;;4.20;;
21018;SDS011;10667;51.056;3.732;2023-03-25T17:02:25;37.90;;;5.53;;
21018;SDS011;10667;51.056;3.732;2023-03-25T17:07:46;24.63;;;5.00;;
21018;SDS011;10667;51.056;3.732;2023-03-25T17:10:23;28.25;;;6.13;;
21018;SDS011;10667;51.056;3.732;2023-03-25T17:12:55;24.42;;;4.53;;
21018;SDS011;10667;51.056;3.732;2023-03-25T17:15:32;35.42;;;5.95;;
21018;SDS011;10667;51.056;3.732;2023-03-25T17:18:11;26.80;;;5.28;;
21018;SDS011;10667;51.056;3.732;2023-03-25T17:20:39;28.73;;;4.57;;
21018;SDS011;10667;51.056;3.732;2023-03-25T17:23:17;25.02;;;5.10;;
21018;SDS011;10667;51.056;3.732;2023-03-25T17:25:57;23.52;;;4.80;;
21018;SDS011;10667;51.056;3.732;2023-03-25T17:31:18;27.10;;;5.22;;
21018;SDS011;10667;51.056;3.732;2023-03-25T17:34:09;23.60;;;5.13;;
21018;SDS011;10667;51.056;3.732;2023-03-25T17:36:56;25.83;;;5.40;;
21018;SDS011;10667;51.056;3.732;2023-03-25T17:39:28;30.80;;;5.60;;
21018;SDS011;10667;51.056;3.732;2023-03-25T17:42:05;32.40;;;6.70;;
21018;SDS011;10667;51.056;3.732;2023-03-25T17:44:38;22.30;;;5.45;;
21018;SDS011;10667;51.056;3.732;2023-03-25T17:47:06;28.73;;;5.95;;
21018;SDS011;10667;51.056;3.732;2023-03-25T17:49:36;35.53;;;7.13;;
21018;SDS011;10667;51.056;3.732;2023-03-25T17:52:02;22.92;;;5.10;;